• Join FlightAware (Why Join?)
  • Login
  • US Flag 
06:53PM EDT


 

Airport Tracker/Info


-or-


 

Live Flight TrackerFlight Track Log ✈ FLG4164 ✈ 10-May-2013 ✈ KDTW - KRDU

Flight Track Log - Related Links

Times and Time Zones

All times are in EDT time to prevent confusion due to time zone crossing. See the FLG4164 flight status page for this flight to view local times or setup timezone preferences in your user account.

Time Position Orientation Groundspeed Altitude Reporting Facility
EDT Latitude Longitude Course Direction KTS MPH feet Rate Location/Type
02:07PM 42.2036 -83.3556 90° East 145 167 1,300  Level Cleveland Center
02:08PM 42.1661 -83.3622 188° South 183 211 2,500 2,040 Climbing Cleveland Center
02:09PM 42.1075 -83.3736 188° South 212 244 5,100 2,640 Climbing Cleveland Center
02:10PM 42.1494 -82.9124 101° East  Level FlightAware Approximate
02:10PM 42.0556 -83.3658 174° South 235 270 7,700  Level Cleveland Center
02:11PM 42.1222 -82.7666 114° Southeast  Level FlightAware Approximate
02:11PM 42.0456 -83.2564 97° East 336 387 9,400  Level Cleveland Center
02:12PM 42.1035 -82.6183 98° East  Level FlightAware Approximate
02:12PM 42.0497 -83.1586 87° East 350 403 10,100  Level Cleveland Center
02:13PM 42.0833 -82.4725 90° East  Level FlightAware Approximate
02:13PM 42.0592 -83.0164 85° East 367 422 10,400  Level Cleveland Center
02:14PM 42.0664 -82.8767 86° East 373 429 12,700 2,040 Climbing Cleveland Center
02:15PM 42.0733 -82.7342 86° East 373 429 14,500 1,800 Climbing Cleveland Center
02:16PM 42.0819 -82.5919 85° East 378 435 16,300 1,560 Climbing Cleveland Center
02:17PM 42.0803 -82.4464 91° East 384 442 17,700 1,380 Climbing Cleveland Center
02:18PM 42.0575 -82.3003 102° East 389 448 19,100 1,260 Climbing Cleveland Center
02:19PM 42.0367 -82.1517 101° East 389 448 20,300 1,080 Climbing Cleveland Center
02:20PM 41.9800 -82.0272 121° Southeast 381 438 21,300 900 Climbing Cleveland Center
02:21PM 41.8914 -81.9417 144° Southeast 381 438 22,200 780 Climbing Cleveland Center
02:22PM 41.8028 -81.8561 144° Southeast 386 444 22,900 660 Climbing Cleveland Center
02:23PM 41.7078 -81.7792 149° Southeast 402 463 23,600 540 Climbing Cleveland Center
02:24PM 41.6189 -81.7081 149° Southeast 402 463 24,000 180 Climbing Cleveland Center
02:25PM 41.5175 -81.6258 149° Southeast 408 470 24,000  Level Cleveland Center
02:26PM 41.4225 -81.5328 144° Southeast 425 489 24,000  Level Cleveland Center
02:27PM 41.3294 -81.4319 141° Southeast 431 496 24,000 180 Level Cleveland Center
02:28PM 41.2197 -81.3203 143° Southeast 444 511 24,400 480 Climbing Cleveland Center
02:29PM 41.1222 -81.2197 142° Southeast 451 519 25,000 540 Climbing Cleveland Center
02:30PM 41.0119 -81.1692 161° South 435 501 25,500 480 Climbing Cleveland Center
02:31PM 40.9019 -81.1106 158° South 428 493 26,000 480 Climbing Cleveland Center
02:32PM 40.7917 -81.0547 159° South 433 498 26,500 420 Climbing Cleveland Center
02:33PM 40.6958 -80.9994 156° South 425 489 26,900 240 Climbing Cleveland Center
02:34PM 40.5856 -80.9411 158° South 420 483 27,000  Climbing Cleveland Center
02:35PM 40.4753 -80.8861 159° South 420 483 27,000  Level Cleveland Center
02:36PM 40.3650 -80.8283 158° South 432 497 27,000  Level Cleveland Center
02:37PM 40.2567 -80.7736 159° South 432 497 27,000  Level Cleveland Center
02:38PM 40.1464 -80.7161 158° South 432 497 27,000  Level Cleveland Center
02:39PM 40.0381 -80.6617 159° South 432 497 27,000  Level Cleveland Center
02:40PM 39.9294 -80.6075 159° South 427 491 27,000  Level Cleveland Center
02:41PM 39.8211 -80.5506 158° South 427 491 27,000  Level Cleveland Center
02:42PM 39.7128 -80.4939 158° South 427 491 27,000  Level Cleveland Center
02:44PM 39.5178 -80.3992 159° South 417 480 27,000  Level Washington Center
02:44PM 39.4094 -80.3461 159° South 417 480 27,000  Level Washington Center
02:45PM 39.2950 -80.2878 158° South 425 489 27,000  Level Washington Center
02:46PM 39.1825 -80.2297 158° South 436 502 27,000  Level Washington Center
02:47PM 39.0678 -80.1742 159° South 441 507 27,000  Level Washington Center
02:48PM 38.9531 -80.1217 160° South 441 507 27,000  Level Washington Center
02:49PM 38.8392 -80.1039 173° South 430 495 27,000  Level Washington Center
02:50PM 38.7244 -80.1022 179° South 417 480 27,000  Level Washington Center
02:51PM 38.6017 -80.1000 179° South 412 474 27,000  Level Washington Center
02:52PM 38.4933 -80.0961 178° South 406 467 27,000  Level Washington Center
02:54PM 38.3828 -80.0947 179° South 401 461 27,000 -240 Level Washington Center
02:54PM 38.2722 -80.0933 179° South 401 461 26,600 -720 Descending Washington Center
02:55PM 38.1703 -80.0897 178° South 406 467 25,600 -840 Descending Washington Center
02:56PM 38.0575 -80.0908 180° South 406 467 25,000 -360 Descending Washington Center
02:57PM 37.9492 -80.0872 178° South 401 461 25,000  Level Washington Center
02:58PM 37.8264 -80.0850 179° South 401 461 25,000  Level Washington Center
02:59PM 37.7136 -80.0836 179° South 401 461 25,000  Level Washington Center
03:00PM 37.6058 -80.0692 174° South 401 461 25,000  Level Washington Center
03:02PM 37.5256 -79.9808 139° Southeast 394 453 25,000  Level Washington Center
03:02PM 37.4356 -79.8786 138° Southeast 415 478 25,000 -360 Level Washington Center
03:03PM 37.3372 -79.7661 138° Southeast 435 501 24,300 -780 Descending Washington Center
03:04PM 37.2511 -79.6650 137° Southeast 435 501 23,500 -900 Descending Washington Center
03:05PM 37.1647 -79.5664 138° Southeast 428 493 22,500 -1,020 Descending Washington Center
03:06PM 37.0881 -79.4817 139° Southeast 422 486 21,500 -1,020 Descending Washington Center
03:07PM 36.9947 -79.4017 146° Southeast 417 480 20,500 -1,260 Descending Washington Center
03:08PM 36.9011 -79.3294 148° Southeast 406 467 19,100 -1,560 Descending Washington Center
03:09PM 36.7992 -79.2494 148° Southeast 400 460 17,400 -1,680 Descending Washington Center
03:10PM 36.7117 -79.1806 148° Southeast 387 445 15,800 -1,620 Descending Washington Center
03:11PM 36.6258 -79.1169 149° Southeast 382 440 14,300 -1,560 Descending Washington Center
03:12PM 36.5422 -79.0511 148° Southeast 362 417 12,700 -1,680 Descending Washington Center
03:13PM 36.5156 -79.0292 147° Southeast 357 411 12,100 -1,740 Descending Washington Center
03:13PM 36.4686 -78.9936 149° Southeast 357 411 11,300 -1,320 Descending Washington Center
03:14PM 36.3892 -78.9281 146° Southeast 348 400 9,900 -1,200 Descending Washington Center
03:15PM 36.3281 -78.8714 143° Southeast 270 311 8,900 -1,020 Descending Washington Center
03:16PM 36.2650 -78.8147 144° Southeast 273 314 8,000 -720 Descending Washington Center
03:17PM 36.2058 -78.7633 145° Southeast 236 272 7,500 -480 Descending Washington Center
03:17PM 36.2058 -78.7633 145° Southeast 260 299 7,500 -1,380 Level Washington Center
03:18PM 36.1550 -78.7150 142° Southeast 228 262 6,100 -1,380 Descending Washington Center
03:20PM 36.0908 -78.6944 165° South 222 255 4,800 -1,620 Descending Washington Center
03:20PM 36.0350 -78.6794 168° South 220 253 2,900 -1,500 Descending Washington Center
03:21PM 35.9764 -78.6797 180° South 202 232 2,000 -900 Descending Washington Center